This is the latest recevied weather packets stored in our database for station/object HS2XQB-3. If no packets are shown the sender has not sent any weather packets the latest 10 day(s).
| Time | Temp. | Humidity | Pressure | Rain* | Wind** | Luminosity | Snow |
|---|---|---|---|---|---|---|---|
| 1777860893 | 25° C | 46% | 1006 hPa | - | - | 0 W/m² | - |
| 1777859071 | 26.11° C | 60% | 1007 hPa | - | - | 0 W/m² | - |
| 1777857249 | 23.89° C | 50% | 1006 hPa | - | - | 0 W/m² | - |
| 1777855427 | 23.89° C | 55% | 1006 hPa | - | - | 0 W/m² | - |
| 1777853605 | 24.44° C | 65% | 1006 hPa | - | - | 0 W/m² | - |
| 1777851783 | 23.89° C | 68% | 1005 hPa | - | - | 0 W/m² | - |
| 1777849961 | 24.44° C | 79% | 1005 hPa | - | - | 0 W/m² | - |
| 1777848139 | 23.89° C | 70% | 1005 hPa | - | - | 0 W/m² | - |
| 1777846317 | 23.89° C | 76% | 1005 hPa | - | - | 0 W/m² | - |
| 1777844495 | 24.44° C | 75% | 1004 hPa | - | - | 0 W/m² | - |
| 1777842673 | 23.33° C | 67% | 1004 hPa | - | - | 0 W/m² | - |
| 1777840851 | 23.89° C | 75% | 1004 hPa | - | - | 0 W/m² | - |
| 1777839029 | 24.44° C | 77% | 1004 hPa | - | - | 0 W/m² | - |
| 1777837207 | 23.89° C | 70% | 1005 hPa | - | - | 0 W/m² | - |
| 1777835385 | 24.44° C | 73% | 1005 hPa | - | - | 0 W/m² | - |
| 1777833562 | 24.44° C | 76% | 1005 hPa | - | - | 0 W/m² | - |
| 1777831740 | 23.89° C | 69% | 1005 hPa | - | - | 0 W/m² | - |
| 1777829918 | 23.89° C | 70% | 1005 hPa | - | - | 0 W/m² | - |
| 1777828096 | 24.44° C | 73% | 1005 hPa | - | - | 0 W/m² | - |
| 1777826274 | 23.89° C | 65% | 1005 hPa | - | - | 0 W/m² | - |
| 1777824452 | 23.89° C | 64% | 1005 hPa | - | - | 0 W/m² | - |
| 1777822630 | 24.44° C | 70% | 1005 hPa | - | - | 0 W/m² | - |
| 1777820808 | 24.44° C | 68% | 1005 hPa | - | - | 0 W/m² | - |
| 1777818986 | 23.33° C | 61% | 1005 hPa | - | - | 0 W/m² | - |
| 1777817164 | 24.44° C | 69% | 1005 hPa | - | - | 0 W/m² | - |
* Rain since midnight (hover to see other rain measurements)
** Current wind speed in m/s (hover to see current wind gust speed)